createdAt,value
2023-03-04T00:00:55.618Z,18.50
2023-03-04T00:03:25.261Z,17.20
2023-03-04T00:05:54.387Z,15.60
2023-03-04T00:08:25.230Z,17.90
2023-03-04T00:10:53.634Z,16.60
2023-03-04T00:13:24.004Z,15.10
2023-03-04T00:15:55.292Z,16.00
2023-03-04T00:18:25.520Z,17.40
2023-03-04T00:20:55.235Z,17.00
2023-03-04T00:23:25.850Z,17.30
2023-03-04T00:25:54.070Z,15.50
2023-03-04T00:28:23.258Z,18.30
2023-03-04T00:32:08.669Z,16.10
2023-03-04T00:34:40.723Z,16.40
2023-03-04T00:37:11.478Z,14.50
2023-03-04T00:39:42.555Z,17.30
2023-03-04T00:42:11.350Z,16.90
2023-03-04T00:44:42.494Z,13.80
2023-03-04T00:47:12.510Z,14.60
2023-03-04T00:49:42.443Z,15.60
2023-03-04T00:52:13.563Z,13.80
2023-03-04T00:54:42.308Z,15.70
2023-03-04T00:57:12.419Z,16.90
2023-03-04T00:59:43.497Z,15.10
2023-03-04T01:02:13.505Z,14.00
2023-03-04T01:04:43.471Z,16.40
2023-03-04T01:07:12.771Z,14.60
2023-03-04T01:09:42.460Z,16.30
2023-03-04T01:12:14.115Z,15.90
2023-03-04T01:14:44.273Z,16.30
2023-03-04T01:17:13.214Z,14.40
2023-03-04T01:19:46.027Z,15.80
2023-03-04T01:22:19.432Z,15.50
2023-03-04T01:24:49.267Z,16.20
2023-03-04T01:27:21.033Z,14.90
2023-03-04T01:29:50.073Z,18.90
2023-03-04T01:32:20.678Z,18.10
2023-03-04T01:34:51.216Z,17.10
2023-03-04T01:37:22.192Z,16.90
2023-03-04T01:39:52.588Z,17.50
2023-03-04T01:42:26.288Z,15.80
2023-03-04T01:44:54.752Z,16.60
2023-03-04T01:47:30.007Z,17.80
2023-03-04T01:50:02.281Z,15.50
2023-03-04T01:52:32.363Z,15.30
2023-03-04T01:55:01.105Z,14.90
2023-03-04T01:57:35.042Z,15.60
2023-03-04T02:00:33.996Z,14.60
2023-03-04T02:03:14.373Z,14.80
2023-03-04T02:05:49.747Z,13.30
2023-03-04T02:08:22.463Z,15.70
2023-03-04T02:10:52.189Z,14.50
2023-03-04T02:13:25.639Z,14.20
2023-03-04T02:15:55.400Z,14.30
2023-03-04T02:18:27.183Z,14.10
2023-03-04T02:21:05.728Z,12.90
2023-03-04T02:23:56.140Z,17.80
2023-03-04T02:26:29.305Z,11.80
2023-03-04T02:29:00.189Z,11.80
2023-03-04T02:31:41.250Z,13.10
2023-03-04T02:34:19.931Z,10.10
2023-03-04T02:36:51.948Z,12.80
2023-03-04T02:39:41.713Z,11.90
2023-03-04T02:42:12.694Z,14.00
2023-03-04T02:44:48.158Z,10.60
2023-03-04T02:47:20.594Z,11.40
2023-03-04T02:49:52.461Z,10.10
2023-03-04T02:52:27.265Z,12.40
2023-03-04T02:54:57.038Z,11.70
2023-03-04T02:57:26.392Z,12.10
2023-03-04T02:59:55.751Z,12.90
2023-03-04T03:02:28.209Z,10.40
2023-03-04T03:04:57.835Z,11.40
2023-03-04T03:07:29.258Z,10.60
2023-03-04T03:09:59.654Z,12.10
2023-03-04T03:12:27.645Z,9.80
2023-03-04T03:14:56.488Z,11.80
2023-03-04T03:17:26.382Z,11.50
2023-03-04T03:19:55.799Z,12.40
2023-03-04T03:22:26.915Z,11.00
2023-03-04T03:24:56.903Z,10.70
2023-03-04T03:27:28.481Z,11.40
2023-03-04T03:30:02.346Z,12.30
2023-03-04T03:32:31.409Z,10.90
2023-03-04T03:35:00.086Z,9.60
2023-03-04T03:37:30.124Z,10.40
2023-03-04T03:39:58.541Z,13.30
2023-03-04T03:42:27.545Z,12.30
2023-03-04T03:44:56.076Z,11.60
2023-03-04T03:47:25.994Z,10.40
2023-03-04T03:49:55.939Z,10.80
2023-03-04T03:52:25.974Z,11.40
2023-03-04T03:54:54.142Z,10.80
2023-03-04T03:57:22.986Z,9.70
2023-03-04T03:59:51.794Z,10.70
2023-03-04T04:02:24.558Z,12.00
2023-03-04T04:04:55.822Z,10.40
2023-03-04T04:07:26.791Z,11.20
2023-03-04T04:09:56.430Z,11.60
2023-03-04T04:12:25.417Z,10.40
2023-03-04T04:14:58.253Z,11.80
2023-03-04T04:17:28.890Z,12.40
2023-03-04T04:19:58.874Z,9.60
2023-03-04T04:22:29.201Z,10.00
2023-03-04T04:24:59.508Z,10.40
2023-03-04T04:27:31.323Z,9.40
2023-03-04T04:30:01.381Z,9.00
2023-03-04T04:32:31.614Z,9.60
2023-03-04T04:35:00.199Z,10.20
2023-03-04T04:37:30.010Z,10.00
2023-03-04T04:39:59.833Z,8.80
2023-03-04T04:42:29.767Z,9.10
2023-03-04T04:44:59.896Z,10.40
2023-03-04T04:47:28.906Z,10.40
2023-03-04T04:49:58.360Z,10.10
2023-03-04T04:52:27.306Z,8.80
2023-03-04T04:54:57.715Z,9.40
2023-03-04T04:57:28.367Z,8.00
2023-03-04T05:00:00.473Z,8.40
2023-03-04T05:02:29.778Z,9.00
2023-03-04T05:05:00.897Z,9.70
2023-03-04T05:07:31.101Z,9.70
2023-03-04T05:10:02.138Z,7.90
2023-03-04T05:12:32.275Z,9.40
2023-03-04T05:15:04.080Z,8.60
2023-03-04T05:17:33.817Z,9.00
2023-03-04T05:20:04.545Z,8.50
2023-03-04T05:22:32.638Z,10.00
2023-03-04T05:25:02.383Z,9.90
2023-03-04T05:27:35.229Z,10.00
2023-03-04T05:30:04.994Z,10.10
2023-03-04T05:32:34.608Z,11.40
2023-03-04T05:35:04.386Z,8.40
2023-03-04T05:37:36.250Z,8.70
2023-03-04T05:40:05.791Z,8.70
2023-03-04T05:42:34.912Z,7.80
2023-03-04T05:45:03.825Z,7.80
2023-03-04T05:47:38.988Z,8.50
2023-03-04T05:50:08.504Z,9.40
2023-03-04T05:52:37.154Z,7.00
2023-03-04T05:55:06.803Z,7.40
2023-03-04T05:57:35.347Z,7.70
2023-03-04T06:00:07.376Z,8.50
2023-03-04T06:02:43.882Z,8.70
2023-03-04T06:05:14.382Z,6.90
2023-03-04T06:07:44.570Z,8.70
2023-03-04T06:10:15.878Z,7.00
2023-03-04T06:12:43.865Z,8.70
2023-03-04T06:15:16.236Z,10.00
2023-03-04T06:17:46.103Z,6.80
2023-03-04T06:20:16.587Z,7.30
2023-03-04T06:22:47.252Z,6.60
2023-03-04T06:25:20.497Z,8.60
2023-03-04T06:27:50.915Z,7.00
2023-03-04T06:30:21.266Z,8.80
2023-03-04T06:32:52.979Z,7.30
2023-03-04T06:35:23.831Z,6.40
2023-03-04T06:37:54.785Z,7.30
2023-03-04T06:40:25.153Z,7.70
2023-03-04T06:42:56.124Z,7.30
2023-03-04T06:45:25.241Z,9.00
2023-03-04T06:47:54.058Z,7.00
2023-03-04T06:50:23.051Z,7.90
2023-03-04T06:52:52.650Z,7.50
2023-03-04T06:55:22.251Z,8.20
2023-03-04T06:57:51.649Z,6.90
2023-03-04T07:00:23.826Z,8.20
2023-03-04T07:02:54.075Z,8.90
2023-03-04T07:05:23.829Z,6.40
2023-03-04T07:07:54.747Z,8.60
2023-03-04T07:10:27.522Z,6.80
2023-03-04T07:12:57.328Z,7.30
2023-03-04T07:15:27.023Z,7.80
2023-03-04T07:17:56.212Z,8.50
2023-03-04T07:20:24.403Z,6.60
2023-03-04T07:22:53.089Z,7.70
2023-03-04T07:25:22.137Z,8.60
2023-03-04T07:27:51.138Z,9.00
2023-03-04T07:30:19.456Z,7.10
2023-03-04T07:32:48.201Z,6.40
2023-03-04T07:35:16.576Z,6.50
2023-03-04T07:37:44.641Z,7.80
2023-03-04T07:40:14.716Z,5.70
2023-03-04T07:42:42.490Z,8.20
2023-03-04T07:45:13.961Z,6.70
2023-03-04T07:47:44.198Z,6.80
2023-03-04T07:50:17.882Z,6.50
2023-03-04T07:52:50.756Z,6.10
2023-03-04T07:55:19.053Z,6.10
2023-03-04T07:57:48.224Z,5.90
2023-03-04T08:00:17.575Z,7.40
2023-03-04T08:02:48.130Z,6.00
2023-03-04T08:05:16.951Z,5.40
2023-03-04T08:07:48.659Z,6.70
2023-03-04T08:10:19.608Z,6.30
2023-03-04T08:12:53.709Z,7.50
2023-03-04T08:15:21.532Z,5.80
2023-03-04T08:17:50.269Z,7.50
2023-03-04T08:20:20.648Z,7.30
2023-03-04T08:22:50.709Z,7.60
2023-03-04T08:25:20.405Z,8.40
2023-03-04T08:27:49.108Z,5.60
2023-03-04T08:30:19.399Z,7.10
2023-03-04T08:33:18.575Z,6.10
2023-03-04T08:35:44.870Z,6.50
2023-03-04T08:38:15.786Z,6.90
2023-03-04T08:40:47.066Z,9.70
2023-03-04T08:43:17.143Z,5.90
2023-03-04T08:45:48.969Z,6.30
2023-03-04T08:48:30.756Z,7.70
2023-03-04T08:51:00.320Z,6.30
2023-03-04T08:53:33.892Z,9.30
2023-03-04T08:56:05.681Z,8.70
2023-03-04T08:58:34.364Z,6.80
2023-03-04T09:01:04.859Z,9.10
2023-03-04T09:03:38.130Z,6.00
2023-03-04T09:06:23.069Z,6.60
2023-03-04T09:08:55.652Z,6.10
2023-03-04T09:11:24.732Z,6.70
2023-03-04T09:13:56.431Z,6.20
2023-03-04T09:16:30.082Z,7.30
2023-03-04T09:19:02.538Z,7.40
2023-03-04T09:21:35.488Z,7.10
2023-03-04T09:24:05.804Z,7.30
2023-03-04T09:26:40.797Z,5.40
2023-03-04T09:29:11.058Z,8.00
2023-03-04T09:31:42.182Z,8.70
2023-03-04T09:34:14.028Z,6.10
2023-03-04T09:36:42.264Z,6.00
2023-03-04T09:39:15.125Z,7.20
2023-03-04T09:41:49.289Z,6.80
2023-03-04T09:44:30.832Z,7.50
2023-03-04T09:47:06.024Z,7.50
2023-03-04T09:49:37.136Z,8.10
2023-03-04T09:52:39.678Z,27.40
2023-03-04T09:59:49.220Z,16.30
2023-03-04T10:03:31.959Z,8.60
2023-03-04T10:09:35.830Z,6.90
2023-03-04T10:12:11.283Z,6.50
2023-03-04T10:15:08.094Z,8.60
2023-03-04T10:22:48.996Z,6.20
2023-03-04T10:25:53.918Z,12.00
2023-03-04T10:28:39.226Z,10.90
2023-03-04T10:31:09.084Z,19.70
2023-03-04T10:33:40.626Z,9.70
2023-03-04T10:37:00.009Z,7.60
2023-03-04T10:39:45.673Z,8.90
2023-03-04T10:42:14.043Z,18.30
2023-03-04T10:44:53.491Z,10.00
2023-03-04T10:47:24.798Z,3.70
2023-03-04T10:49:56.280Z,4.40
2023-03-04T10:52:31.804Z,6.80
2023-03-04T10:55:15.373Z,7.90
2023-03-04T10:57:48.367Z,8.60
2023-03-04T11:00:34.656Z,10.40
2023-03-04T11:03:23.481Z,8.00
2023-03-04T11:06:04.294Z,28.30
2023-03-04T11:08:36.625Z,6.30
2023-03-04T11:11:23.280Z,63.70
2023-03-04T11:14:01.482Z,5.40
2023-03-04T11:16:32.474Z,6.10
2023-03-04T11:19:11.562Z,2.10
2023-03-04T11:21:43.294Z,1.80
2023-03-04T11:24:28.223Z,1.60
2023-03-04T11:27:05.005Z,1.60
2023-03-04T11:29:47.172Z,1.80
2023-03-04T11:32:21.779Z,3.20
2023-03-04T11:35:16.975Z,1.40
2023-03-04T11:37:55.508Z,1.60
2023-03-04T11:40:43.472Z,2.20
2023-03-04T11:43:35.662Z,1.20
2023-03-04T11:46:18.270Z,1.40
2023-03-04T11:48:57.316Z,1.20
2023-03-04T11:51:36.987Z,0.70
2023-03-04T11:54:19.222Z,0.80
2023-03-04T11:57:14.510Z,1.40
2023-03-04T11:59:57.869Z,1.30
2023-03-04T12:02:53.197Z,1.40
2023-03-04T12:05:34.245Z,1.70
2023-03-04T12:08:08.464Z,1.40
2023-03-04T12:11:12.445Z,1.00
2023-03-04T12:16:45.235Z,1.70
2023-03-04T12:19:38.555Z,1.90
2023-03-04T12:22:30.477Z,1.80
2023-03-04T12:25:08.598Z,1.40
2023-03-04T12:27:49.751Z,2.20
2023-03-04T12:31:01.428Z,4.30
2023-03-04T12:33:45.720Z,2.70
2023-03-04T12:36:20.683Z,2.10
2023-03-04T12:38:59.319Z,1.40
2023-03-04T12:41:56.174Z,0.80
2023-03-04T12:44:27.615Z,0.80
2023-03-04T12:47:16.536Z,0.90
2023-03-04T12:50:16.933Z,0.80
2023-03-04T12:53:12.060Z,0.90
2023-03-04T12:55:47.590Z,1.30
2023-03-04T12:58:26.567Z,0.90
2023-03-04T13:01:15.621Z,0.70
2023-03-04T13:04:09.085Z,0.80
2023-03-04T13:06:57.364Z,0.80
2023-03-04T13:09:48.670Z,1.40
2023-03-04T13:12:22.463Z,1.00
2023-03-04T13:15:08.830Z,1.60
2023-03-04T13:18:25.215Z,1.30
2023-03-04T13:21:11.953Z,1.40
2023-03-04T13:23:42.606Z,0.60
2023-03-04T13:26:43.664Z,1.20
2023-03-04T13:29:19.154Z,0.90
2023-03-04T13:32:03.190Z,0.90
2023-03-04T13:34:50.200Z,0.80
2023-03-04T13:37:34.265Z,0.90
2023-03-04T13:40:34.638Z,1.10
2023-03-04T13:43:26.132Z,0.90
2023-03-04T13:45:54.148Z,1.10
2023-03-04T13:48:36.188Z,1.20
2023-03-04T13:51:05.443Z,1.80
2023-03-04T13:53:42.057Z,2.60
2023-03-04T13:56:35.905Z,1.90
2023-03-04T14:02:11.898Z,2.10
2023-03-04T14:04:48.075Z,1.40
2023-03-04T14:07:29.446Z,1.20
2023-03-04T14:10:13.906Z,1.20
2023-03-04T14:12:48.390Z,1.60
2023-03-04T14:15:31.669Z,2.60
2023-03-04T14:18:05.518Z,2.30
2023-03-04T14:20:41.173Z,2.30
2023-03-04T14:23:31.193Z,2.30
2023-03-04T14:26:10.282Z,2.60
2023-03-04T14:28:47.587Z,2.80
2023-03-04T14:31:21.532Z,4.40
2023-03-04T14:33:57.003Z,4.40
2023-03-04T14:36:25.791Z,5.90
2023-03-04T14:39:00.143Z,7.10
2023-03-04T14:41:35.770Z,5.40
2023-03-04T14:44:17.669Z,3.00
2023-03-04T14:47:06.516Z,8.10
2023-03-04T14:49:38.785Z,14.60
2023-03-04T14:52:10.720Z,3.00
2023-03-04T14:54:41.489Z,4.40
2023-03-04T14:57:32.819Z,3.30
2023-03-04T15:00:27.946Z,3.30
2023-03-04T15:03:02.510Z,3.60
2023-03-04T15:05:35.771Z,2.60
2023-03-04T15:08:22.995Z,3.70
2023-03-04T15:11:02.454Z,4.50
2023-03-04T15:13:46.294Z,5.40
2023-03-04T15:16:18.713Z,7.10
2023-03-04T15:19:27.797Z,5.80
2023-03-04T15:22:11.249Z,4.60
2023-03-04T15:24:41.467Z,13.30
2023-03-04T15:27:14.414Z,8.20
2023-03-04T15:29:46.259Z,6.80
2023-03-04T15:32:15.777Z,7.80
2023-03-04T15:34:48.708Z,9.20
2023-03-04T15:37:24.724Z,7.60
2023-03-04T15:39:55.680Z,11.50
2023-03-04T15:42:25.106Z,24.30
2023-03-04T15:44:54.813Z,16.00
2023-03-04T15:47:25.649Z,13.70
2023-03-04T15:49:55.132Z,17.50
2023-03-04T15:52:25.497Z,12.10
2023-03-04T15:54:56.932Z,5.80
2023-03-04T15:57:30.003Z,3.40
2023-03-04T16:00:04.129Z,2.00
2023-03-04T16:02:55.504Z,1.60
2023-03-04T16:05:28.694Z,1.40
2023-03-04T16:08:00.514Z,2.20
2023-03-04T16:10:33.353Z,3.70
2023-03-04T16:13:02.516Z,3.40
2023-03-04T16:15:34.210Z,4.50
2023-03-04T16:18:04.510Z,7.10
2023-03-04T16:20:36.260Z,3.80
2023-03-04T16:23:11.344Z,2.30
2023-03-04T16:25:45.518Z,4.90
2023-03-04T16:28:17.297Z,4.20
2023-03-04T16:30:48.904Z,6.70
2023-03-04T16:33:18.899Z,5.70
2023-03-04T16:35:51.930Z,5.50
2023-03-04T16:38:28.077Z,5.90
2023-03-04T16:40:57.943Z,6.80
2023-03-04T16:43:28.886Z,4.90
2023-03-04T16:45:58.580Z,3.40
2023-03-04T16:48:31.043Z,3.40
2023-03-04T16:51:04.674Z,2.90
2023-03-04T16:53:36.580Z,2.70
2023-03-04T16:56:18.705Z,2.50
2023-03-04T17:06:52.260Z,5.00
2023-03-04T17:09:23.582Z,3.90
2023-03-04T17:11:58.843Z,5.60
2023-03-04T17:14:29.708Z,6.00
2023-03-04T17:16:58.604Z,5.60
2023-03-04T17:19:30.809Z,3.10
2023-03-04T17:22:02.313Z,5.80
2023-03-04T17:24:31.944Z,4.50
2023-03-04T17:27:05.195Z,2.90
2023-03-04T17:29:43.013Z,3.40
2023-03-04T17:32:15.800Z,5.00
2023-03-04T17:34:46.849Z,4.80
2023-03-04T17:37:18.651Z,4.00
2023-03-04T17:39:50.283Z,3.70
2023-03-04T17:42:23.729Z,4.50
2023-03-04T17:44:54.345Z,3.00
2023-03-04T17:47:25.714Z,1.90
2023-03-04T17:49:58.677Z,2.20
2023-03-04T17:52:28.094Z,3.30
2023-03-04T17:55:07.487Z,2.80
2023-03-04T17:57:39.951Z,2.00
2023-03-04T18:00:13.455Z,3.00
2023-03-04T18:02:46.285Z,3.40
2023-03-04T18:05:18.691Z,2.80
2023-03-04T18:07:52.092Z,3.60
2023-03-04T18:10:25.100Z,3.50
2023-03-04T18:15:32.270Z,4.10
2023-03-04T18:18:03.900Z,5.00
2023-03-04T18:20:34.749Z,7.90
2023-03-04T18:23:03.868Z,8.30
2023-03-04T18:25:33.570Z,3.20
2023-03-04T18:28:04.159Z,7.40
2023-03-04T18:30:37.177Z,2.90
2023-03-04T18:33:08.227Z,9.10
2023-03-04T18:35:43.276Z,3.60
2023-03-04T18:38:15.821Z,2.40
2023-03-04T18:40:49.192Z,3.40
2023-03-04T18:43:23.385Z,3.80
2023-03-04T18:46:04.362Z,2.10
2023-03-04T18:48:40.257Z,3.10
2023-03-04T18:51:12.208Z,5.20
2023-03-04T18:53:43.901Z,2.10
2023-03-04T18:56:28.940Z,2.50
2023-03-04T18:59:03.713Z,4.40
2023-03-04T19:01:38.598Z,5.80
2023-03-04T19:04:10.173Z,6.60
2023-03-04T19:06:41.160Z,11.20
2023-03-04T19:09:13.231Z,9.60
2023-03-04T19:11:49.596Z,7.60
2023-03-04T19:14:22.436Z,6.20
2023-03-04T19:16:55.026Z,7.30
2023-03-04T19:19:25.930Z,6.10
2023-03-04T19:22:01.725Z,6.50
2023-03-04T19:24:32.408Z,10.30
2023-03-04T19:27:05.682Z,14.30
2023-03-04T19:29:39.072Z,9.70
2023-03-04T19:32:10.180Z,9.60
2023-03-04T19:34:42.937Z,8.50
2023-03-04T19:37:14.641Z,8.70
2023-03-04T19:39:46.496Z,8.90
2023-03-04T19:42:18.242Z,8.70
2023-03-04T19:44:49.111Z,6.20
2023-03-04T19:47:27.083Z,6.60
2023-03-04T19:50:03.086Z,5.80
2023-03-04T19:52:36.439Z,5.10
2023-03-04T19:55:15.929Z,4.40
2023-03-04T19:57:47.509Z,6.90
2023-03-04T20:00:24.160Z,4.60
2023-03-04T20:02:56.870Z,6.20
2023-03-04T20:05:25.342Z,7.30
2023-03-04T20:08:01.630Z,8.90
2023-03-04T20:10:41.057Z,9.10
2023-03-04T20:13:12.803Z,8.90
2023-03-04T20:15:44.931Z,7.80
2023-03-04T20:18:15.589Z,7.40
2023-03-04T20:20:44.967Z,7.50
2023-03-04T20:23:16.662Z,6.70
2023-03-04T20:25:48.367Z,7.50
2023-03-04T20:28:19.724Z,6.40
2023-03-04T20:30:50.676Z,6.30
2023-03-04T20:33:22.597Z,6.20
2023-03-04T20:35:53.679Z,5.70
2023-03-04T20:38:24.794Z,4.80
2023-03-04T20:41:04.726Z,5.00
2023-03-04T20:43:40.439Z,7.70
2023-03-04T20:46:41.684Z,7.00
2023-03-04T20:49:25.761Z,5.30
2023-03-04T20:52:08.826Z,5.60
2023-03-04T20:54:42.284Z,4.70
2023-03-04T20:57:15.112Z,5.60
2023-03-04T20:59:50.019Z,4.70
2023-03-04T21:02:20.740Z,6.30
2023-03-04T21:04:55.633Z,5.80
2023-03-04T21:07:31.768Z,6.00
2023-03-04T21:10:09.829Z,5.40
2023-03-04T21:12:46.191Z,6.20
2023-03-04T21:15:22.878Z,6.90
2023-03-04T21:17:53.164Z,6.50
2023-03-04T21:20:22.550Z,8.90
2023-03-04T21:22:54.729Z,7.90
2023-03-04T21:25:32.489Z,8.30
2023-03-04T21:28:24.614Z,8.00
2023-03-04T21:30:53.450Z,6.70
2023-03-04T21:33:32.096Z,6.00
2023-03-04T21:36:04.890Z,7.50
2023-03-04T21:41:18.156Z,5.70
2023-03-04T21:43:48.250Z,5.70
2023-03-04T21:46:17.852Z,5.60
2023-03-04T21:48:48.573Z,4.20
2023-03-04T21:51:20.419Z,6.30
2023-03-04T21:53:51.858Z,6.40
2023-03-04T21:56:24.102Z,6.60
2023-03-04T21:58:56.404Z,6.00
2023-03-04T22:01:28.153Z,6.30
2023-03-04T22:03:57.291Z,6.40
2023-03-04T22:06:29.478Z,6.10
2023-03-04T22:09:03.153Z,5.90
2023-03-04T22:11:35.299Z,5.00
2023-03-04T22:14:05.880Z,5.20
2023-03-04T22:16:42.483Z,10.60
2023-03-04T22:19:19.572Z,6.50
2023-03-04T22:21:47.781Z,4.10
2023-03-04T22:24:20.485Z,3.90
2023-03-04T22:26:53.942Z,3.90
2023-03-04T22:29:23.670Z,4.70
2023-03-04T22:31:54.200Z,4.60
2023-03-04T22:34:23.196Z,3.70
2023-03-04T22:36:53.969Z,4.20
2023-03-04T22:39:23.423Z,4.50
2023-03-04T22:41:51.840Z,3.90
2023-03-04T22:44:24.301Z,3.70
2023-03-04T22:46:52.908Z,4.80
2023-03-04T22:49:26.826Z,4.90
2023-03-04T22:51:57.018Z,4.80
2023-03-04T22:54:29.267Z,7.40
2023-03-04T22:56:58.935Z,5.20
2023-03-04T22:59:27.091Z,7.40
2023-03-04T23:01:57.013Z,7.30
2023-03-04T23:04:26.202Z,8.90
2023-03-04T23:06:57.692Z,7.10
2023-03-04T23:09:27.678Z,8.50
2023-03-04T23:11:56.695Z,4.80
2023-03-04T23:14:56.183Z,5.20
2023-03-04T23:17:25.574Z,4.30
2023-03-04T23:19:56.854Z,3.70
2023-03-04T23:22:25.921Z,4.10
2023-03-04T23:24:58.719Z,5.10
2023-03-04T23:27:28.297Z,5.80
2023-03-04T23:29:58.467Z,4.40
2023-03-04T23:32:28.508Z,4.00
2023-03-04T23:34:59.887Z,5.30
2023-03-04T23:37:29.860Z,5.80
2023-03-04T23:40:00.409Z,4.80
2023-03-04T23:42:30.652Z,4.30
2023-03-04T23:44:59.103Z,4.70
2023-03-04T23:47:31.275Z,5.60
2023-03-04T23:50:00.423Z,4.50
2023-03-04T23:52:28.489Z,4.70
2023-03-04T23:54:59.086Z,5.30
2023-03-04T23:57:29.167Z,5.50
2023-03-04T23:59:59.851Z,5.70
